Capitol Logistics 343




KMIA
Miami International Airport
Miami, Florida
TIST
Cyril E King Airport
Charlotte Amalie, U.S.V.I

Activity Log

Date Flight Route Aircraft Duration
No Flights Yet

Route Details

Aircraft Information
Primary: Boeing 737-800BCF
Backup: Boeing 757-200SF
Route Data
Distance: 963nm
Duration: 2h 37m
Recm'd Route: SKIPS2 SKIPS Y290 JETSS
Origin Wx: KMIA 020653Z 22004KT 10SM FEW027 FEW090 FEW250 28/25 A3006 RMK AO2 SLP178 OCNL LTGIC DSNT NE-SE CB DSNT NE-SE MOV N T02830250 $
Dest. Wx: TIST 240753Z AUTO 00000KT 10SM FEW020 SCT038 OVC060 27/24 A2994 RMK AO2 RAB14E53 SLP138 P0008 T02720244 $
Notes: